sensor_id;sensor_type;location;lat;lon;timestamp;P1;durP1;ratioP1;P2;durP2;ratioP2
20185;SDS011;10252;48.792;8.582;2023-08-30T00:04:48;5.20;;;4.70;;
20185;SDS011;10252;48.792;8.582;2023-08-30T00:09:49;6.40;;;5.15;;
20185;SDS011;10252;48.792;8.582;2023-08-30T00:14:51;5.72;;;5.20;;
20185;SDS011;10252;48.792;8.582;2023-08-30T00:19:52;7.03;;;5.47;;
20185;SDS011;10252;48.792;8.582;2023-08-30T00:24:55;7.07;;;5.47;;
20185;SDS011;10252;48.792;8.582;2023-08-30T00:29:57;8.05;;;5.40;;
20185;SDS011;10252;48.792;8.582;2023-08-30T00:34:58;5.70;;;5.20;;
20185;SDS011;10252;48.792;8.582;2023-08-30T00:39:59;5.35;;;4.85;;
20185;SDS011;10252;48.792;8.582;2023-08-30T00:45:01;7.03;;;5.20;;
20185;SDS011;10252;48.792;8.582;2023-08-30T00:50:03;5.50;;;4.90;;
20185;SDS011;10252;48.792;8.582;2023-08-30T00:55:04;5.65;;;4.80;;
20185;SDS011;10252;48.792;8.582;2023-08-30T01:00:08;4.90;;;4.50;;
20185;SDS011;10252;48.792;8.582;2023-08-30T01:05:10;4.57;;;4.18;;
20185;SDS011;10252;48.792;8.582;2023-08-30T01:10:12;4.80;;;4.38;;
20185;SDS011;10252;48.792;8.582;2023-08-30T01:15:18;6.40;;;4.45;;
20185;SDS011;10252;48.792;8.582;2023-08-30T01:20:20;4.90;;;4.40;;
20185;SDS011;10252;48.792;8.582;2023-08-30T01:25:36;4.63;;;4.10;;
20185;SDS011;10252;48.792;8.582;2023-08-30T01:30:40;4.88;;;4.47;;
20185;SDS011;10252;48.792;8.582;2023-08-30T01:35:43;6.28;;;4.10;;
20185;SDS011;10252;48.792;8.582;2023-08-30T01:40:45;7.05;;;4.25;;
20185;SDS011;10252;48.792;8.582;2023-08-30T01:45:46;4.18;;;3.78;;
20185;SDS011;10252;48.792;8.582;2023-08-30T01:50:48;3.70;;;3.40;;
20185;SDS011;10252;48.792;8.582;2023-08-30T01:55:49;4.50;;;4.10;;
20185;SDS011;10252;48.792;8.582;2023-08-30T02:00:52;4.45;;;3.80;;
20185;SDS011;10252;48.792;8.582;2023-08-30T02:10:58;3.78;;;3.47;;
20185;SDS011;10252;48.792;8.582;2023-08-30T02:16:01;4.63;;;3.78;;
20185;SDS011;10252;48.792;8.582;2023-08-30T02:21:03;5.70;;;4.10;;
20185;SDS011;10252;48.792;8.582;2023-08-30T02:26:04;5.78;;;2.92;;
20185;SDS011;10252;48.792;8.582;2023-08-30T02:31:06;3.35;;;3.00;;
20185;SDS011;10252;48.792;8.582;2023-08-30T02:36:07;5.43;;;3.47;;
20185;SDS011;10252;48.792;8.582;2023-08-30T02:41:09;3.95;;;3.42;;
20185;SDS011;10252;48.792;8.582;2023-08-30T02:46:10;4.05;;;3.67;;
20185;SDS011;10252;48.792;8.582;2023-08-30T02:51:12;4.70;;;4.00;;
20185;SDS011;10252;48.792;8.582;2023-08-30T02:56:14;4.32;;;3.92;;
20185;SDS011;10252;48.792;8.582;2023-08-30T03:01:15;4.47;;;4.07;;
20185;SDS011;10252;48.792;8.582;2023-08-30T03:06:17;4.50;;;3.65;;
20185;SDS011;10252;48.792;8.582;2023-08-30T03:11:18;4.03;;;3.63;;
20185;SDS011;10252;48.792;8.582;2023-08-30T03:16:24;4.72;;;3.65;;
20185;SDS011;10252;48.792;8.582;2023-08-30T03:21:27;5.25;;;3.90;;
20185;SDS011;10252;48.792;8.582;2023-08-30T03:26:31;5.28;;;4.45;;
20185;SDS011;10252;48.792;8.582;2023-08-30T03:31:33;4.13;;;3.78;;
20185;SDS011;10252;48.792;8.582;2023-08-30T03:36:34;3.88;;;3.58;;
20185;SDS011;10252;48.792;8.582;2023-08-30T03:41:36;4.78;;;3.92;;
20185;SDS011;10252;48.792;8.582;2023-08-30T03:46:38;4.20;;;3.80;;
20185;SDS011;10252;48.792;8.582;2023-08-30T03:51:40;4.20;;;3.53;;
20185;SDS011;10252;48.792;8.582;2023-08-30T03:56:44;3.92;;;3.63;;
20185;SDS011;10252;48.792;8.582;2023-08-30T04:01:46;4.43;;;3.63;;
20185;SDS011;10252;48.792;8.582;2023-08-30T04:06:48;3.90;;;3.60;;
20185;SDS011;10252;48.792;8.582;2023-08-30T04:11:50;3.83;;;3.40;;
20185;SDS011;10252;48.792;8.582;2023-08-30T04:16:51;3.72;;;3.40;;
20185;SDS011;10252;48.792;8.582;2023-08-30T04:21:53;6.18;;;3.55;;
20185;SDS011;10252;48.792;8.582;2023-08-30T04:26:54;4.60;;;3.75;;
20185;SDS011;10252;48.792;8.582;2023-08-30T04:31:56;4.82;;;4.43;;
20185;SDS011;10252;48.792;8.582;2023-08-30T04:36:58;6.22;;;4.47;;
20185;SDS011;10252;48.792;8.582;2023-08-30T04:41:59;6.15;;;4.20;;
20185;SDS011;10252;48.792;8.582;2023-08-30T04:47:03;4.18;;;3.75;;
20185;SDS011;10252;48.792;8.582;2023-08-30T04:52:05;4.85;;;3.85;;
20185;SDS011;10252;48.792;8.582;2023-08-30T04:57:06;4.65;;;3.55;;
20185;SDS011;10252;48.792;8.582;2023-08-30T05:02:08;3.72;;;3.42;;
20185;SDS011;10252;48.792;8.582;2023-08-30T05:07:15;5.90;;;3.78;;
20185;SDS011;10252;48.792;8.582;2023-08-30T05:12:17;3.63;;;3.33;;
20185;SDS011;10252;48.792;8.582;2023-08-30T05:17:19;5.50;;;3.50;;
20185;SDS011;10252;48.792;8.582;2023-08-30T05:22:21;4.00;;;3.65;;
20185;SDS011;10252;48.792;8.582;2023-08-30T05:27:22;6.03;;;4.35;;
20185;SDS011;10252;48.792;8.582;2023-08-30T05:32:24;6.38;;;3.85;;
20185;SDS011;10252;48.792;8.582;2023-08-30T05:37:44;3.97;;;3.30;;
20185;SDS011;10252;48.792;8.582;2023-08-30T05:43:08;6.40;;;4.88;;
20185;SDS011;10252;48.792;8.582;2023-08-30T05:48:10;5.60;;;4.55;;
20185;SDS011;10252;48.792;8.582;2023-08-30T05:53:11;4.05;;;3.65;;
20185;SDS011;10252;48.792;8.582;2023-08-30T05:58:14;4.80;;;3.65;;
20185;SDS011;10252;48.792;8.582;2023-08-30T06:03:18;4.40;;;4.00;;
20185;SDS011;10252;48.792;8.582;2023-08-30T06:08:20;4.65;;;4.00;;
20185;SDS011;10252;48.792;8.582;2023-08-30T06:13:21;4.18;;;3.67;;
20185;SDS011;10252;48.792;8.582;2023-08-30T06:18:23;3.40;;;3.10;;
20185;SDS011;10252;48.792;8.582;2023-08-30T06:23:25;4.72;;;2.90;;
20185;SDS011;10252;48.792;8.582;2023-08-30T06:28:26;4.35;;;3.92;;
20185;SDS011;10252;48.792;8.582;2023-08-30T06:33:28;6.72;;;4.22;;
20185;SDS011;10252;48.792;8.582;2023-08-30T06:38:29;3.72;;;3.42;;
20185;SDS011;10252;48.792;8.582;2023-08-30T06:43:31;7.45;;;3.30;;
20185;SDS011;10252;48.792;8.582;2023-08-30T06:48:32;2.90;;;2.70;;
20185;SDS011;10252;48.792;8.582;2023-08-30T06:53:33;3.28;;;2.97;;
20185;SDS011;10252;48.792;8.582;2023-08-30T06:58:35;4.25;;;3.15;;
20185;SDS011;10252;48.792;8.582;2023-08-30T07:03:36;3.72;;;3.30;;
20185;SDS011;10252;48.792;8.582;2023-08-30T07:08:40;4.38;;;2.88;;
20185;SDS011;10252;48.792;8.582;2023-08-30T07:13:42;5.40;;;3.10;;
20185;SDS011;10252;48.792;8.582;2023-08-30T07:18:43;3.53;;;3.17;;
20185;SDS011;10252;48.792;8.582;2023-08-30T07:23:44;5.63;;;3.58;;
20185;SDS011;10252;48.792;8.582;2023-08-30T07:28:46;3.28;;;2.97;;
20185;SDS011;10252;48.792;8.582;2023-08-30T07:33:47;3.03;;;2.72;;
20185;SDS011;10252;48.792;8.582;2023-08-30T07:38:49;3.25;;;2.95;;
20185;SDS011;10252;48.792;8.582;2023-08-30T07:43:50;3.20;;;2.80;;
20185;SDS011;10252;48.792;8.582;2023-08-30T07:48:52;4.10;;;2.60;;
20185;SDS011;10252;48.792;8.582;2023-08-30T07:53:53;3.30;;;2.45;;
20185;SDS011;10252;48.792;8.582;2023-08-30T07:58:56;2.97;;;2.78;;
20185;SDS011;10252;48.792;8.582;2023-08-30T08:03:58;2.30;;;2.10;;
20185;SDS011;10252;48.792;8.582;2023-08-30T08:09:00;4.53;;;2.60;;
20185;SDS011;10252;48.792;8.582;2023-08-30T08:14:01;2.45;;;2.22;;
20185;SDS011;10252;48.792;8.582;2023-08-30T08:19:03;2.38;;;2.17;;
20185;SDS011;10252;48.792;8.582;2023-08-30T08:24:05;6.10;;;2.45;;
20185;SDS011;10252;48.792;8.582;2023-08-30T08:29:07;3.42;;;1.88;;
20185;SDS011;10252;48.792;8.582;2023-08-30T08:34:09;2.10;;;1.85;;
20185;SDS011;10252;48.792;8.582;2023-08-30T08:39:11;2.42;;;1.75;;
20185;SDS011;10252;48.792;8.582;2023-08-30T08:44:14;1.90;;;1.70;;
20185;SDS011;10252;48.792;8.582;2023-08-30T08:49:17;2.75;;;1.95;;
20185;SDS011;10252;48.792;8.582;2023-08-30T08:54:18;2.33;;;1.90;;
20185;SDS011;10252;48.792;8.582;2023-08-30T08:59:20;1.98;;;1.77;;
20185;SDS011;10252;48.792;8.582;2023-08-30T09:04:22;3.60;;;1.98;;
20185;SDS011;10252;48.792;8.582;2023-08-30T09:09:25;2.25;;;2.03;;
20185;SDS011;10252;48.792;8.582;2023-08-30T09:14:27;2.90;;;2.38;;
20185;SDS011;10252;48.792;8.582;2023-08-30T09:19:28;3.85;;;2.38;;
20185;SDS011;10252;48.792;8.582;2023-08-30T09:24:37;2.72;;;1.77;;
20185;SDS011;10252;48.792;8.582;2023-08-30T09:29:40;2.67;;;1.90;;
20185;SDS011;10252;48.792;8.582;2023-08-30T09:34:47;2.50;;;2.30;;
20185;SDS011;10252;48.792;8.582;2023-08-30T09:39:49;2.50;;;2.30;;
20185;SDS011;10252;48.792;8.582;2023-08-30T09:44:52;3.53;;;2.78;;
20185;SDS011;10252;48.792;8.582;2023-08-30T09:49:56;2.53;;;2.33;;
20185;SDS011;10252;48.792;8.582;2023-08-30T09:54:59;2.42;;;2.22;;
20185;SDS011;10252;48.792;8.582;2023-08-30T10:00:01;3.17;;;2.75;;
20185;SDS011;10252;48.792;8.582;2023-08-30T10:05:04;3.30;;;3.00;;
20185;SDS011;10252;48.792;8.582;2023-08-30T10:10:06;2.90;;;2.70;;
20185;SDS011;10252;48.792;8.582;2023-08-30T10:15:08;4.43;;;2.72;;
20185;SDS011;10252;48.792;8.582;2023-08-30T10:20:09;2.53;;;2.30;;
20185;SDS011;10252;48.792;8.582;2023-08-30T10:25:16;3.38;;;2.35;;
20185;SDS011;10252;48.792;8.582;2023-08-30T10:30:19;5.05;;;3.00;;
20185;SDS011;10252;48.792;8.582;2023-08-30T10:35:21;2.72;;;2.40;;
20185;SDS011;10252;48.792;8.582;2023-08-30T10:40:23;2.63;;;2.40;;
20185;SDS011;10252;48.792;8.582;2023-08-30T10:45:24;2.88;;;2.35;;
20185;SDS011;10252;48.792;8.582;2023-08-30T10:50:32;1.85;;;1.75;;
20185;SDS011;10252;48.792;8.582;2023-08-30T10:55:34;3.17;;;2.13;;
20185;SDS011;10252;48.792;8.582;2023-08-30T11:00:35;2.00;;;1.90;;
20185;SDS011;10252;48.792;8.582;2023-08-30T11:05:40;6.75;;;2.17;;
20185;SDS011;10252;48.792;8.582;2023-08-30T11:10:42;2.53;;;1.70;;
20185;SDS011;10252;48.792;8.582;2023-08-30T11:15:43;2.05;;;1.60;;
20185;SDS011;10252;48.792;8.582;2023-08-30T11:20:45;4.05;;;1.90;;
20185;SDS011;10252;48.792;8.582;2023-08-30T11:25:49;3.67;;;1.50;;
20185;SDS011;10252;48.792;8.582;2023-08-30T11:30:55;2.78;;;1.98;;
20185;SDS011;10252;48.792;8.582;2023-08-30T11:35:56;2.47;;;1.90;;
20185;SDS011;10252;48.792;8.582;2023-08-30T11:40:58;3.13;;;1.70;;
20185;SDS011;10252;48.792;8.582;2023-08-30T11:45:59;1.50;;;1.40;;
20185;SDS011;10252;48.792;8.582;2023-08-30T11:51:01;1.85;;;1.70;;
20185;SDS011;10252;48.792;8.582;2023-08-30T11:56:02;1.70;;;1.50;;
20185;SDS011;10252;48.792;8.582;2023-08-30T12:01:04;4.10;;;2.03;;
20185;SDS011;10252;48.792;8.582;2023-08-30T12:06:09;1.80;;;1.60;;
20185;SDS011;10252;48.792;8.582;2023-08-30T12:11:18;1.77;;;1.55;;
20185;SDS011;10252;48.792;8.582;2023-08-30T12:16:20;1.60;;;1.35;;
20185;SDS011;10252;48.792;8.582;2023-08-30T12:21:22;2.47;;;2.25;;
20185;SDS011;10252;48.792;8.582;2023-08-30T12:26:31;1.60;;;1.50;;
20185;SDS011;10252;48.792;8.582;2023-08-30T12:31:35;2.03;;;1.50;;
20185;SDS011;10252;48.792;8.582;2023-08-30T12:36:37;1.52;;;1.42;;
20185;SDS011;10252;48.792;8.582;2023-08-30T12:41:39;1.92;;;1.50;;
20185;SDS011;10252;48.792;8.582;2023-08-30T12:46:43;2.88;;;1.52;;
20185;SDS011;10252;48.792;8.582;2023-08-30T12:51:44;2.70;;;1.35;;
20185;SDS011;10252;48.792;8.582;2023-08-30T12:56:46;1.77;;;1.50;;
20185;SDS011;10252;48.792;8.582;2023-08-30T13:01:47;1.92;;;1.60;;
20185;SDS011;10252;48.792;8.582;2023-08-30T13:06:52;1.50;;;1.33;;
20185;SDS011;10252;48.792;8.582;2023-08-30T13:11:58;2.92;;;1.60;;
20185;SDS011;10252;48.792;8.582;2023-08-30T13:16:59;1.95;;;1.67;;
20185;SDS011;10252;48.792;8.582;2023-08-30T13:22:01;1.50;;;1.40;;
20185;SDS011;10252;48.792;8.582;2023-08-30T13:27:03;3.00;;;1.52;;
20185;SDS011;10252;48.792;8.582;2023-08-30T13:32:05;1.77;;;1.67;;
20185;SDS011;10252;48.792;8.582;2023-08-30T13:37:06;2.40;;;2.00;;
20185;SDS011;10252;48.792;8.582;2023-08-30T13:42:08;2.22;;;1.40;;
20185;SDS011;10252;48.792;8.582;2023-08-30T13:47:10;1.85;;;1.50;;
20185;SDS011;10252;48.792;8.582;2023-08-30T13:52:12;2.65;;;1.75;;
20185;SDS011;10252;48.792;8.582;2023-08-30T13:57:13;2.53;;;1.40;;
20185;SDS011;10252;48.792;8.582;2023-08-30T14:02:14;1.52;;;1.42;;
20185;SDS011;10252;48.792;8.582;2023-08-30T14:07:16;1.92;;;1.73;;
20185;SDS011;10252;48.792;8.582;2023-08-30T14:12:17;2.00;;;1.67;;
20185;SDS011;10252;48.792;8.582;2023-08-30T14:17:19;2.08;;;1.63;;
20185;SDS011;10252;48.792;8.582;2023-08-30T14:22:21;2.50;;;1.50;;
20185;SDS011;10252;48.792;8.582;2023-08-30T14:27:24;1.42;;;1.33;;
20185;SDS011;10252;48.792;8.582;2023-08-30T14:32:25;1.90;;;1.80;;
20185;SDS011;10252;48.792;8.582;2023-08-30T14:37:27;2.42;;;1.98;;
20185;SDS011;10252;48.792;8.582;2023-08-30T14:42:29;1.60;;;1.50;;
20185;SDS011;10252;48.792;8.582;2023-08-30T14:47:32;2.67;;;1.75;;
20185;SDS011;10252;48.792;8.582;2023-08-30T14:52:34;1.83;;;1.70;;
20185;SDS011;10252;48.792;8.582;2023-08-30T14:57:35;1.80;;;1.70;;
20185;SDS011;10252;48.792;8.582;2023-08-30T15:02:37;2.67;;;1.30;;
20185;SDS011;10252;48.792;8.582;2023-08-30T15:07:38;1.73;;;1.63;;
20185;SDS011;10252;48.792;8.582;2023-08-30T15:12:40;1.90;;;1.70;;
20185;SDS011;10252;48.792;8.582;2023-08-30T15:17:41;1.58;;;1.45;;
20185;SDS011;10252;48.792;8.582;2023-08-30T15:22:44;1.95;;;1.50;;
20185;SDS011;10252;48.792;8.582;2023-08-30T15:27:47;2.42;;;1.80;;
20185;SDS011;10252;48.792;8.582;2023-08-30T15:32:49;2.97;;;1.35;;
20185;SDS011;10252;48.792;8.582;2023-08-30T15:37:50;1.60;;;1.50;;
20185;SDS011;10252;48.792;8.582;2023-08-30T15:42:51;1.70;;;1.60;;
20185;SDS011;10252;48.792;8.582;2023-08-30T15:47:53;6.55;;;1.40;;
20185;SDS011;10252;48.792;8.582;2023-08-30T15:52:54;2.05;;;1.85;;
20185;SDS011;10252;48.792;8.582;2023-08-30T15:57:56;2.17;;;1.52;;
20185;SDS011;10252;48.792;8.582;2023-08-30T16:02:58;2.17;;;1.83;;
20185;SDS011;10252;48.792;8.582;2023-08-30T16:08:00;1.85;;;1.52;;
20185;SDS011;10252;48.792;8.582;2023-08-30T16:13:02;1.65;;;1.55;;
20185;SDS011;10252;48.792;8.582;2023-08-30T16:18:03;1.90;;;1.70;;
20185;SDS011;10252;48.792;8.582;2023-08-30T16:23:05;1.88;;;1.70;;
20185;SDS011;10252;48.792;8.582;2023-08-30T16:28:06;1.85;;;1.67;;
20185;SDS011;10252;48.792;8.582;2023-08-30T16:33:08;3.00;;;1.90;;
20185;SDS011;10252;48.792;8.582;2023-08-30T16:38:11;1.83;;;1.55;;
20185;SDS011;10252;48.792;8.582;2023-08-30T16:43:12;1.55;;;1.33;;
20185;SDS011;10252;48.792;8.582;2023-08-30T16:48:14;2.38;;;1.70;;
20185;SDS011;10252;48.792;8.582;2023-08-30T16:53:15;1.77;;;1.67;;
20185;SDS011;10252;48.792;8.582;2023-08-30T16:58:17;1.75;;;1.65;;
20185;SDS011;10252;48.792;8.582;2023-08-30T17:03:18;3.85;;;2.10;;
20185;SDS011;10252;48.792;8.582;2023-08-30T17:08:20;3.03;;;2.05;;
20185;SDS011;10252;48.792;8.582;2023-08-30T17:13:21;1.98;;;1.88;;
20185;SDS011;10252;48.792;8.582;2023-08-30T17:18:23;2.78;;;2.00;;
20185;SDS011;10252;48.792;8.582;2023-08-30T17:23:24;3.05;;;2.13;;
20185;SDS011;10252;48.792;8.582;2023-08-30T17:28:25;3.78;;;2.00;;
20185;SDS011;10252;48.792;8.582;2023-08-30T17:33:28;3.10;;;2.17;;
20185;SDS011;10252;48.792;8.582;2023-08-30T17:38:32;3.20;;;2.10;;
20185;SDS011;10252;48.792;8.582;2023-08-30T17:43:34;2.80;;;2.13;;
20185;SDS011;10252;48.792;8.582;2023-08-30T17:48:35;3.13;;;2.08;;
20185;SDS011;10252;48.792;8.582;2023-08-30T17:53:39;2.60;;;2.03;;
20185;SDS011;10252;48.792;8.582;2023-08-30T17:58:40;3.60;;;2.90;;
20185;SDS011;10252;48.792;8.582;2023-08-30T18:03:42;2.83;;;2.58;;
20185;SDS011;10252;48.792;8.582;2023-08-30T18:08:44;4.95;;;2.40;;
20185;SDS011;10252;48.792;8.582;2023-08-30T18:13:45;5.57;;;2.40;;
20185;SDS011;10252;48.792;8.582;2023-08-30T18:18:47;3.08;;;2.40;;
20185;SDS011;10252;48.792;8.582;2023-08-30T18:29:10;7.00;;;3.08;;
20185;SDS011;10252;48.792;8.582;2023-08-30T18:34:12;4.13;;;3.05;;
20185;SDS011;10252;48.792;8.582;2023-08-30T18:39:15;3.55;;;2.70;;
20185;SDS011;10252;48.792;8.582;2023-08-30T18:44:17;5.95;;;3.17;;
20185;SDS011;10252;48.792;8.582;2023-08-30T18:49:18;3.53;;;2.75;;
20185;SDS011;10252;48.792;8.582;2023-08-30T18:54:21;4.55;;;2.70;;
20185;SDS011;10252;48.792;8.582;2023-08-30T18:59:23;3.58;;;3.13;;
20185;SDS011;10252;48.792;8.582;2023-08-30T19:04:25;5.53;;;3.38;;
20185;SDS011;10252;48.792;8.582;2023-08-30T19:09:26;4.03;;;2.80;;
20185;SDS011;10252;48.792;8.582;2023-08-30T19:14:28;3.80;;;2.88;;
20185;SDS011;10252;48.792;8.582;2023-08-30T19:19:29;3.83;;;2.80;;
20185;SDS011;10252;48.792;8.582;2023-08-30T19:24:31;6.30;;;3.70;;
20185;SDS011;10252;48.792;8.582;2023-08-30T19:29:37;5.90;;;3.20;;
20185;SDS011;10252;48.792;8.582;2023-08-30T19:34:38;3.70;;;2.97;;
20185;SDS011;10252;48.792;8.582;2023-08-30T19:39:39;4.88;;;3.05;;
20185;SDS011;10252;48.792;8.582;2023-08-30T19:44:41;3.30;;;2.78;;
20185;SDS011;10252;48.792;8.582;2023-08-30T19:49:42;5.28;;;3.42;;
20185;SDS011;10252;48.792;8.582;2023-08-30T19:54:50;3.28;;;2.72;;
20185;SDS011;10252;48.792;8.582;2023-08-30T19:59:53;3.75;;;3.20;;
20185;SDS011;10252;48.792;8.582;2023-08-30T20:04:55;3.72;;;2.53;;
20185;SDS011;10252;48.792;8.582;2023-08-30T20:09:57;4.18;;;2.90;;
20185;SDS011;10252;48.792;8.582;2023-08-30T20:14:58;3.15;;;2.40;;
20185;SDS011;10252;48.792;8.582;2023-08-30T20:20:00;3.55;;;2.47;;
20185;SDS011;10252;48.792;8.582;2023-08-30T20:25:01;2.80;;;2.30;;
20185;SDS011;10252;48.792;8.582;2023-08-30T20:30:03;3.25;;;2.40;;
20185;SDS011;10252;48.792;8.582;2023-08-30T20:35:05;4.15;;;2.28;;
20185;SDS011;10252;48.792;8.582;2023-08-30T20:40:07;3.40;;;2.38;;
20185;SDS011;10252;48.792;8.582;2023-08-30T20:45:09;5.07;;;2.95;;
20185;SDS011;10252;48.792;8.582;2023-08-30T20:50:11;5.25;;;2.60;;
20185;SDS011;10252;48.792;8.582;2023-08-30T20:55:12;5.10;;;2.95;;
20185;SDS011;10252;48.792;8.582;2023-08-30T21:00:15;6.10;;;2.78;;
20185;SDS011;10252;48.792;8.582;2023-08-30T21:05:16;4.07;;;1.77;;
20185;SDS011;10252;48.792;8.582;2023-08-30T21:10:18;2.35;;;1.67;;
20185;SDS011;10252;48.792;8.582;2023-08-30T21:15:19;3.80;;;1.85;;
20185;SDS011;10252;48.792;8.582;2023-08-30T21:20:21;2.55;;;1.65;;
20185;SDS011;10252;48.792;8.582;2023-08-30T21:25:22;2.50;;;1.70;;
20185;SDS011;10252;48.792;8.582;2023-08-30T21:30:24;3.45;;;1.70;;
20185;SDS011;10252;48.792;8.582;2023-08-30T21:35:25;2.65;;;1.83;;
20185;SDS011;10252;48.792;8.582;2023-08-30T21:40:27;2.97;;;1.75;;
20185;SDS011;10252;48.792;8.582;2023-08-30T21:45:28;2.67;;;1.85;;
20185;SDS011;10252;48.792;8.582;2023-08-30T21:50:30;2.00;;;1.42;;
20185;SDS011;10252;48.792;8.582;2023-08-30T21:55:31;2.15;;;1.13;;
20185;SDS011;10252;48.792;8.582;2023-08-30T22:00:33;2.35;;;1.20;;
20185;SDS011;10252;48.792;8.582;2023-08-30T22:05:34;4.22;;;1.50;;
20185;SDS011;10252;48.792;8.582;2023-08-30T22:10:37;3.00;;;1.42;;
20185;SDS011;10252;48.792;8.582;2023-08-30T22:15:38;2.20;;;1.30;;
20185;SDS011;10252;48.792;8.582;2023-08-30T22:20:40;3.08;;;1.80;;
20185;SDS011;10252;48.792;8.582;2023-08-30T22:25:42;2.40;;;1.85;;
20185;SDS011;10252;48.792;8.582;2023-08-30T22:30:44;5.10;;;1.55;;
20185;SDS011;10252;48.792;8.582;2023-08-30T22:35:45;4.28;;;1.83;;
20185;SDS011;10252;48.792;8.582;2023-08-30T22:40:47;2.80;;;1.90;;
20185;SDS011;10252;48.792;8.582;2023-08-30T22:45:49;3.00;;;1.88;;
20185;SDS011;10252;48.792;8.582;2023-08-30T22:50:51;2.50;;;2.00;;
20185;SDS011;10252;48.792;8.582;2023-08-30T22:55:52;3.42;;;2.42;;
20185;SDS011;10252;48.792;8.582;2023-08-30T23:00:54;3.78;;;2.20;;
20185;SDS011;10252;48.792;8.582;2023-08-30T23:05:56;5.00;;;3.08;;
20185;SDS011;10252;48.792;8.582;2023-08-30T23:10:57;3.92;;;2.30;;
20185;SDS011;10252;48.792;8.582;2023-08-30T23:15:59;3.90;;;3.17;;
20185;SDS011;10252;48.792;8.582;2023-08-30T23:21:00;4.13;;;2.63;;
20185;SDS011;10252;48.792;8.582;2023-08-30T23:26:02;3.55;;;3.25;;
20185;SDS011;10252;48.792;8.582;2023-08-30T23:31:04;3.78;;;3.15;;
20185;SDS011;10252;48.792;8.582;2023-08-30T23:36:06;4.55;;;3.58;;
20185;SDS011;10252;48.792;8.582;2023-08-30T23:41:07;4.30;;;3.53;;
20185;SDS011;10252;48.792;8.582;2023-08-30T23:46:09;5.90;;;2.85;;
20185;SDS011;10252;48.792;8.582;2023-08-30T23:51:10;5.85;;;3.17;;
20185;SDS011;10252;48.792;8.582;2023-08-30T23:56:12;6.53;;;3.30;;
